LPE2373 SPJC-SCFA
Flight info
| Callsign | LPE2373 |
|---|---|
| Flight time | 1h 57m |
| Altitude | 39000 |
| Route | SCO UL550 XONOG/N0371F230 Q803 ENLUS ENLUS5A |
| Aircraft | A319/M-SDE3FGHIRWY/LB1 |
Departure
| Time | 2026-04-19 05:02 |
|---|---|
| Airport | Jorge Chávez International Airport (SPJC) |
Arrival
| Time | 2026-04-19 06:59 |
|---|---|
| Airport | Andrés Sabella Gálvez International Airport (SCFA) |
| Time | Latitude | Longitude | Altitude | Speed | Heading |
|---|---|---|---|---|---|
| 2026-04-19 04:46 | -12.02166 | -77.10943 | 117 ft | 0 kts | 203° |
| 2026-04-19 04:50 | -12.02162 | -77.10942 | 118 ft | 2 kts | 203° |
| 2026-04-19 04:50 | -12.02144 | -77.10934 | 118 ft | 3 kts | 201° |
| 2026-04-19 04:50 | -12.02126 | -77.10927 | 120 ft | 3 kts | 205° |
| 2026-04-19 04:51 | -12.02108 | -77.10917 | 119 ft | 3 kts | 222° |
| 2026-04-19 04:51 | -12.02098 | -77.10905 | 115 ft | 2 kts | 264° |
| 2026-04-19 04:51 | -12.02092 | -77.10923 | 116 ft | 3 kts | 289° |
| 2026-04-19 04:52 | -12.02089 | -77.10939 | 120 ft | 1 kts | 276° |
| 2026-04-19 04:52 | -12.02089 | -77.10940 | 120 ft | 1 kts | 276° |
| 2026-04-19 04:54 | -12.02089 | -77.10948 | 120 ft | 2 kts | 276° |
| 2026-04-19 04:55 | -12.02086 | -77.10973 | 120 ft | 5 kts | 272° |
| 2026-04-19 04:55 | -12.02101 | -77.11020 | 117 ft | 9 kts | 244° |
| 2026-04-19 04:55 | -12.02128 | -77.11074 | 118 ft | 8 kts | 243° |
| 2026-04-19 04:55 | -12.02178 | -77.11104 | 120 ft | 10 kts | 184° |
| 2026-04-19 04:56 | -12.02247 | -77.11102 | 119 ft | 10 kts | 160° |
| 2026-04-19 04:56 | -12.02298 | -77.11094 | 117 ft | 12 kts | 193° |
| 2026-04-19 04:56 | -12.02356 | -77.11124 | 118 ft | 7 kts | 255° |
| 2026-04-19 04:56 | -12.02315 | -77.11160 | 120 ft | 10 kts | 335° |
| 2026-04-19 04:57 | -12.02243 | -77.11196 | 119 ft | 13 kts | 334° |
| 2026-04-19 04:57 | -12.02154 | -77.11240 | 119 ft | 14 kts | 334° |
| 2026-04-19 04:57 | -12.02057 | -77.11288 | 118 ft | 17 kts | 334° |
| 2026-04-19 04:57 | -12.01936 | -77.11347 | 119 ft | 21 kts | 334° |
| 2026-04-19 04:58 | -12.01805 | -77.11411 | 116 ft | 22 kts | 335° |
| 2026-04-19 04:58 | -12.01664 | -77.11482 | 117 ft | 24 kts | 333° |
| 2026-04-19 04:58 | -12.01510 | -77.11558 | 120 ft | 25 kts | 334° |
| 2026-04-19 04:58 | -12.01374 | -77.11626 | 117 ft | 22 kts | 334° |
| 2026-04-19 04:59 | -12.01232 | -77.11695 | 119 ft | 24 kts | 334° |
| 2026-04-19 04:59 | -12.01115 | -77.11754 | 117 ft | 17 kts | 334° |
| 2026-04-19 04:59 | -12.01001 | -77.11811 | 117 ft | 19 kts | 334° |
| 2026-04-19 04:59 | -12.00871 | -77.11875 | 116 ft | 22 kts | 334° |
| 2026-04-19 05:00 | -12.00747 | -77.11935 | 119 ft | 14 kts | 335° |
| 2026-04-19 05:00 | -12.00675 | -77.11991 | 119 ft | 14 kts | 294° |
| 2026-04-19 05:00 | -12.00702 | -77.12088 | 120 ft | 14 kts | 237° |
| 2026-04-19 05:00 | -12.00780 | -77.12109 | 119 ft | 13 kts | 182° |
| 2026-04-19 05:01 | -12.00862 | -77.12089 | 116 ft | 13 kts | 153° |
| 2026-04-19 05:01 | -12.00985 | -77.12030 | 116 ft | 38 kts | 154° |
| 2026-04-19 05:01 | -12.01402 | -77.11822 | 121 ft | 95 kts | 154° |
| 2026-04-19 05:01 | -12.02163 | -77.11444 | 118 ft | 147 kts | 154° |
| 2026-04-19 05:02 | -12.03203 | -77.10926 | 372 ft | 170 kts | 154° |
| 2026-04-19 05:02 | -12.04234 | -77.10406 | 1158 ft | 163 kts | 155° |
| 2026-04-19 05:02 | -12.05284 | -77.09892 | 1735 ft | 172 kts | 155° |
| 2026-04-19 05:02 | -12.06429 | -77.09323 | 2074 ft | 194 kts | 154° |
| 2026-04-19 05:03 | -12.07724 | -77.08663 | 2318 ft | 225 kts | 154° |
| 2026-04-19 05:03 | -12.09234 | -77.07915 | 2674 ft | 257 kts | 154° |
| 2026-04-19 05:03 | -12.10902 | -77.07110 | 3455 ft | 267 kts | 155° |
| 2026-04-19 05:03 | -12.12580 | -77.06295 | 4536 ft | 270 kts | 155° |
| 2026-04-19 05:04 | -12.14411 | -77.05808 | 5392 ft | 277 kts | 182° |
| 2026-04-19 05:04 | -12.16287 | -77.06319 | 5819 ft | 282 kts | 213° |
| 2026-04-19 05:04 | -12.17760 | -77.07666 | 6209 ft | 284 kts | 230° |
| 2026-04-19 05:04 | -12.19012 | -77.09215 | 6212 ft | 283 kts | 233° |
| 2026-04-19 05:05 | -12.20239 | -77.10770 | 6084 ft | 281 kts | 231° |
| 2026-04-19 05:05 | -12.21516 | -77.12274 | 6015 ft | 280 kts | 229° |
| 2026-04-19 05:05 | -12.22849 | -77.13719 | 6005 ft | 280 kts | 227° |
| 2026-04-19 05:05 | -12.24236 | -77.15128 | 6003 ft | 280 kts | 225° |
| 2026-04-19 05:06 | -12.25648 | -77.16504 | 6003 ft | 280 kts | 224° |
| 2026-04-19 05:06 | -12.27075 | -77.17862 | 6004 ft | 281 kts | 223° |
| 2026-04-19 05:06 | -12.28699 | -77.18971 | 6000 ft | 282 kts | 205° |
| 2026-04-19 05:06 | -12.30595 | -77.19492 | 6059 ft | 287 kts | 185° |
| 2026-04-19 05:07 | -12.32604 | -77.19346 | 6826 ft | 290 kts | 168° |
| 2026-04-19 05:07 | -12.34580 | -77.18927 | 7746 ft | 290 kts | 168° |
| 2026-04-19 05:07 | -12.36562 | -77.18510 | 8639 ft | 292 kts | 168° |
| 2026-04-19 05:07 | -12.38554 | -77.18089 | 9514 ft | 293 kts | 167° |
| 2026-04-19 05:08 | -12.40567 | -77.17663 | 10247 ft | 300 kts | 167° |
| 2026-04-19 05:08 | -12.44953 | -77.16722 | 11026 ft | 332 kts | 167° |
| 2026-04-19 05:08 | -12.47227 | -77.16234 | 11697 ft | 336 kts | 168° |
| 2026-04-19 05:09 | -12.49526 | -77.15741 | 12411 ft | 338 kts | 168° |
| 2026-04-19 05:09 | -12.51836 | -77.15246 | 13119 ft | 341 kts | 168° |
| 2026-04-19 05:09 | -12.54171 | -77.14745 | 13815 ft | 344 kts | 168° |
| 2026-04-19 05:09 | -12.56521 | -77.14237 | 14390 ft | 348 kts | 168° |
| 2026-04-19 05:10 | -12.58909 | -77.13721 | 14928 ft | 353 kts | 168° |
| 2026-04-19 05:10 | -12.61330 | -77.13200 | 15447 ft | 359 kts | 167° |
| 2026-04-19 05:10 | -12.63792 | -77.12670 | 15939 ft | 365 kts | 168° |
| 2026-04-19 05:10 | -12.66299 | -77.12131 | 16466 ft | 370 kts | 168° |
| 2026-04-19 05:11 | -12.68829 | -77.11587 | 16987 ft | 375 kts | 168° |
| 2026-04-19 05:11 | -12.71403 | -77.11031 | 17505 ft | 380 kts | 168° |
| 2026-04-19 05:11 | -12.74003 | -77.10471 | 18013 ft | 385 kts | 168° |
| 2026-04-19 05:11 | -12.76648 | -77.09902 | 18487 ft | 390 kts | 168° |
| 2026-04-19 05:12 | -12.79321 | -77.09330 | 18941 ft | 394 kts | 168° |
| 2026-04-19 05:12 | -12.82019 | -77.08751 | 19409 ft | 398 kts | 168° |
| 2026-04-19 05:12 | -12.84742 | -77.08165 | 19862 ft | 402 kts | 168° |
| 2026-04-19 05:12 | -12.87485 | -77.07574 | 20334 ft | 405 kts | 168° |
| 2026-04-19 05:13 | -12.90259 | -77.06977 | 20816 ft | 408 kts | 168° |
| 2026-04-19 05:13 | -12.93049 | -77.06379 | 21278 ft | 412 kts | 169° |
| 2026-04-19 05:13 | -12.95866 | -77.05775 | 21733 ft | 415 kts | 169° |
| 2026-04-19 05:13 | -12.98700 | -77.05165 | 22182 ft | 418 kts | 169° |
| 2026-04-19 05:14 | -13.01552 | -77.04547 | 22617 ft | 421 kts | 169° |
| 2026-04-19 05:14 | -13.04386 | -77.03747 | 23048 ft | 425 kts | 160° |
| 2026-04-19 05:14 | -13.07051 | -77.02416 | 23472 ft | 429 kts | 148° |
| 2026-04-19 05:14 | -13.09445 | -77.00586 | 23840 ft | 431 kts | 137° |
| 2026-04-19 05:15 | -13.11498 | -76.98331 | 24203 ft | 433 kts | 129° |
| 2026-04-19 05:15 | -13.13453 | -76.95920 | 24568 ft | 435 kts | 129° |
| 2026-04-19 05:15 | -13.15394 | -76.93526 | 24920 ft | 437 kts | 129° |
| 2026-04-19 05:15 | -13.17347 | -76.91120 | 25255 ft | 441 kts | 129° |
| 2026-04-19 05:16 | -13.19316 | -76.88697 | 25589 ft | 443 kts | 129° |
| 2026-04-19 05:16 | -13.21297 | -76.86260 | 25929 ft | 445 kts | 129° |
| 2026-04-19 05:16 | -13.23283 | -76.83814 | 26288 ft | 447 kts | 129° |
| 2026-04-19 05:16 | -13.25280 | -76.81355 | 26637 ft | 449 kts | 129° |
| 2026-04-19 05:17 | -13.27283 | -76.78887 | 26973 ft | 451 kts | 129° |
| 2026-04-19 05:17 | -13.29299 | -76.76399 | 27313 ft | 453 kts | 130° |
| 2026-04-19 05:17 | -13.31319 | -76.73910 | 27645 ft | 456 kts | 130° |
| 2026-04-19 05:17 | -13.33352 | -76.71404 | 27979 ft | 458 kts | 130° |
| 2026-04-19 05:18 | -13.35395 | -76.68883 | 28303 ft | 460 kts | 130° |
| 2026-04-19 05:18 | -13.37444 | -76.66352 | 28630 ft | 462 kts | 130° |
| 2026-04-19 05:18 | -13.39505 | -76.63808 | 28953 ft | 464 kts | 130° |
| 2026-04-19 05:18 | -13.41572 | -76.61253 | 29277 ft | 466 kts | 130° |
| 2026-04-19 05:19 | -13.43648 | -76.58685 | 29603 ft | 469 kts | 130° |
| 2026-04-19 05:19 | -13.45736 | -76.56098 | 29918 ft | 471 kts | 130° |
| 2026-04-19 05:19 | -13.47830 | -76.53503 | 30198 ft | 473 kts | 130° |
| 2026-04-19 05:19 | -13.49937 | -76.50897 | 30447 ft | 476 kts | 130° |
| 2026-04-19 05:20 | -13.52059 | -76.48277 | 30687 ft | 478 kts | 130° |
| 2026-04-19 05:20 | -13.54192 | -76.45645 | 30953 ft | 480 kts | 130° |
| 2026-04-19 05:20 | -13.56333 | -76.43001 | 31214 ft | 482 kts | 130° |
| 2026-04-19 05:20 | -13.58481 | -76.40343 | 31469 ft | 484 kts | 130° |
| 2026-04-19 05:21 | -13.60638 | -76.37672 | 31757 ft | 486 kts | 130° |
| 2026-04-19 05:21 | -13.62818 | -76.34971 | 32136 ft | 485 kts | 130° |
| 2026-04-19 05:21 | -13.64971 | -76.32302 | 32512 ft | 484 kts | 130° |
| 2026-04-19 05:21 | -13.67119 | -76.29635 | 32893 ft | 484 kts | 129° |
| 2026-04-19 05:22 | -13.69266 | -76.26971 | 33274 ft | 484 kts | 129° |
| 2026-04-19 05:22 | -13.71410 | -76.24309 | 33669 ft | 483 kts | 129° |
| 2026-04-19 05:22 | -13.72848 | -76.22559 | 33935 ft | 483 kts | 132° |
| 2026-04-19 05:22 | -13.75267 | -76.20169 | 34276 ft | 482 kts | 141° |
| 2026-04-19 05:23 | -13.77918 | -76.18068 | 34621 ft | 481 kts | 143° |
| 2026-04-19 05:23 | -13.80574 | -76.15987 | 34980 ft | 480 kts | 143° |
| 2026-04-19 05:23 | -13.83224 | -76.13907 | 35329 ft | 479 kts | 143° |
| 2026-04-19 05:23 | -13.85868 | -76.11823 | 35664 ft | 478 kts | 143° |
| 2026-04-19 05:24 | -13.88507 | -76.09739 | 36013 ft | 477 kts | 143° |
| 2026-04-19 05:24 | -13.91131 | -76.07665 | 36359 ft | 476 kts | 143° |
| 2026-04-19 05:24 | -13.93751 | -76.05591 | 36712 ft | 475 kts | 143° |
| 2026-04-19 05:24 | -13.96364 | -76.03523 | 37057 ft | 473 kts | 143° |
| 2026-04-19 05:25 | -13.98972 | -76.01458 | 37392 ft | 472 kts | 143° |
| 2026-04-19 05:25 | -14.01571 | -75.99401 | 37718 ft | 471 kts | 143° |
| 2026-04-19 05:25 | -14.04168 | -75.97347 | 38030 ft | 470 kts | 143° |
| 2026-04-19 05:25 | -14.06794 | -75.95273 | 38346 ft | 469 kts | 143° |
| 2026-04-19 05:26 | -14.09376 | -75.93233 | 38650 ft | 468 kts | 143° |
| 2026-04-19 05:26 | -14.11957 | -75.91191 | 38868 ft | 467 kts | 143° |
| 2026-04-19 05:26 | -14.14539 | -75.89146 | 38955 ft | 468 kts | 143° |
| 2026-04-19 05:27 | -14.19720 | -75.85048 | 38969 ft | 471 kts | 143° |
| 2026-04-19 05:27 | -14.24920 | -75.80932 | 38967 ft | 471 kts | 143° |
| 2026-04-19 05:28 | -14.30113 | -75.76815 | 38972 ft | 471 kts | 143° |
| 2026-04-19 05:28 | -14.35304 | -75.72696 | 38969 ft | 470 kts | 143° |
| 2026-04-19 05:29 | -14.40493 | -75.68577 | 38972 ft | 471 kts | 143° |
| 2026-04-19 05:29 | -14.45676 | -75.64458 | 38975 ft | 471 kts | 143° |
| 2026-04-19 05:30 | -14.50873 | -75.60333 | 38975 ft | 471 kts | 143° |
| 2026-04-19 05:30 | -14.56099 | -75.56177 | 38971 ft | 472 kts | 143° |
| 2026-04-19 05:31 | -14.61301 | -75.52033 | 38974 ft | 472 kts | 143° |
| 2026-04-19 05:31 | -14.66503 | -75.47891 | 38976 ft | 473 kts | 143° |
| 2026-04-19 05:32 | -14.71718 | -75.43739 | 38976 ft | 473 kts | 143° |
| 2026-04-19 05:32 | -14.76929 | -75.39583 | 38979 ft | 473 kts | 143° |
| 2026-04-19 05:33 | -14.82140 | -75.35432 | 38982 ft | 473 kts | 143° |
| 2026-04-19 05:33 | -14.87350 | -75.31274 | 38984 ft | 473 kts | 143° |
| 2026-04-19 05:34 | -14.92590 | -75.27084 | 38982 ft | 473 kts | 143° |
| 2026-04-19 05:34 | -14.97790 | -75.22921 | 38982 ft | 473 kts | 143° |
| 2026-04-19 05:35 | -15.02994 | -75.18760 | 38987 ft | 472 kts | 143° |
| 2026-04-19 05:35 | -15.08188 | -75.14607 | 38986 ft | 472 kts | 143° |
| 2026-04-19 05:36 | -15.13386 | -75.10447 | 38986 ft | 472 kts | 143° |
| 2026-04-19 05:36 | -15.18579 | -75.06287 | 38993 ft | 472 kts | 143° |
| 2026-04-19 05:37 | -15.23778 | -75.02116 | 38987 ft | 472 kts | 144° |
| 2026-04-19 05:37 | -15.28974 | -74.97946 | 38978 ft | 473 kts | 143° |
| 2026-04-19 05:38 | -15.34205 | -74.93749 | 38975 ft | 473 kts | 143° |
| 2026-04-19 05:38 | -15.39404 | -74.89572 | 38976 ft | 473 kts | 144° |
| 2026-04-19 05:39 | -15.44610 | -74.85392 | 38977 ft | 473 kts | 143° |
| 2026-04-19 05:39 | -15.49845 | -74.81179 | 38981 ft | 474 kts | 144° |
| 2026-04-19 05:40 | -15.55060 | -74.76991 | 38979 ft | 474 kts | 144° |
| 2026-04-19 05:40 | -15.60264 | -74.72794 | 38981 ft | 474 kts | 144° |
| 2026-04-19 05:41 | -15.65464 | -74.68596 | 38977 ft | 474 kts | 144° |
| 2026-04-19 05:41 | -15.70665 | -74.64395 | 38970 ft | 474 kts | 144° |
| 2026-04-19 05:42 | -15.75873 | -74.60201 | 38975 ft | 474 kts | 144° |
| 2026-04-19 05:42 | -15.81081 | -74.55997 | 38975 ft | 474 kts | 144° |
| 2026-04-19 05:43 | -15.86301 | -74.51789 | 38968 ft | 475 kts | 144° |
| 2026-04-19 05:43 | -15.91512 | -74.47573 | 38974 ft | 475 kts | 144° |
| 2026-04-19 05:44 | -15.96723 | -74.43352 | 38965 ft | 475 kts | 144° |
| 2026-04-19 05:44 | -16.01962 | -74.39104 | 38963 ft | 475 kts | 144° |
| 2026-04-19 05:45 | -16.07172 | -74.34879 | 38960 ft | 475 kts | 144° |
| 2026-04-19 05:45 | -16.12386 | -74.30658 | 38975 ft | 475 kts | 144° |
| 2026-04-19 05:46 | -16.17596 | -74.26434 | 38960 ft | 475 kts | 144° |
| 2026-04-19 05:46 | -16.22812 | -74.22197 | 38957 ft | 476 kts | 144° |
| 2026-04-19 05:47 | -16.28026 | -74.17956 | 38957 ft | 476 kts | 144° |
| 2026-04-19 05:47 | -16.33244 | -74.13713 | 38953 ft | 476 kts | 144° |
| 2026-04-19 05:48 | -16.38465 | -74.09471 | 38959 ft | 476 kts | 144° |
| 2026-04-19 05:48 | -16.43687 | -74.05227 | 38965 ft | 476 kts | 144° |
| 2026-04-19 05:49 | -16.48915 | -74.00972 | 38958 ft | 477 kts | 144° |
| 2026-04-19 05:49 | -16.54140 | -73.96707 | 38957 ft | 477 kts | 144° |
| 2026-04-19 05:50 | -16.59365 | -73.92439 | 38955 ft | 477 kts | 144° |
| 2026-04-19 05:50 | -16.64584 | -73.88166 | 38954 ft | 477 kts | 144° |
| 2026-04-19 05:51 | -16.69842 | -73.83871 | 38954 ft | 477 kts | 144° |
| 2026-04-19 05:51 | -16.74187 | -73.80328 | 38955 ft | 477 kts | 144° |
| 2026-04-19 05:52 | -16.79421 | -73.76050 | 38965 ft | 478 kts | 144° |
| 2026-04-19 05:52 | -16.84651 | -73.71769 | 38959 ft | 478 kts | 144° |
| 2026-04-19 05:53 | -16.89879 | -73.67482 | 38955 ft | 478 kts | 144° |
| 2026-04-19 05:53 | -16.95108 | -73.63185 | 38962 ft | 478 kts | 144° |
| 2026-04-19 05:54 | -17.00338 | -73.58883 | 38961 ft | 478 kts | 144° |
| 2026-04-19 05:54 | -17.05570 | -73.54586 | 38966 ft | 479 kts | 144° |
| 2026-04-19 05:55 | -17.10806 | -73.50287 | 38968 ft | 479 kts | 144° |
| 2026-04-19 05:55 | -17.16047 | -73.45976 | 38964 ft | 479 kts | 144° |
| 2026-04-19 05:56 | -17.21327 | -73.41629 | 38964 ft | 480 kts | 144° |
| 2026-04-19 05:56 | -17.26564 | -73.37311 | 38962 ft | 480 kts | 144° |
| 2026-04-19 05:57 | -17.31803 | -73.32984 | 38961 ft | 480 kts | 144° |
| 2026-04-19 05:57 | -17.37050 | -73.28663 | 38953 ft | 480 kts | 144° |
| 2026-04-19 05:58 | -17.42293 | -73.24332 | 38959 ft | 480 kts | 144° |
| 2026-04-19 05:58 | -17.47532 | -73.19997 | 38957 ft | 480 kts | 144° |
| 2026-04-19 05:59 | -17.52781 | -73.15665 | 38956 ft | 481 kts | 144° |
| 2026-04-19 05:59 | -17.58028 | -73.11317 | 38959 ft | 481 kts | 144° |
| 2026-04-19 06:00 | -17.63279 | -73.06968 | 38962 ft | 481 kts | 144° |
| 2026-04-19 06:00 | -17.68535 | -73.02608 | 38972 ft | 482 kts | 144° |
| 2026-04-19 06:01 | -17.73797 | -72.98240 | 38971 ft | 482 kts | 144° |
| 2026-04-19 06:01 | -17.79061 | -72.93871 | 38969 ft | 483 kts | 144° |
| 2026-04-19 06:02 | -17.84323 | -72.89499 | 38972 ft | 482 kts | 144° |
| 2026-04-19 06:02 | -17.89577 | -72.85120 | 38971 ft | 482 kts | 144° |
| 2026-04-19 06:03 | -17.94835 | -72.80751 | 38969 ft | 482 kts | 144° |
| 2026-04-19 06:03 | -18.00132 | -72.76355 | 38970 ft | 482 kts | 144° |
| 2026-04-19 06:04 | -18.05383 | -72.71976 | 38970 ft | 482 kts | 144° |
| 2026-04-19 06:04 | -18.10631 | -72.67591 | 38970 ft | 482 kts | 144° |
| 2026-04-19 06:05 | -18.15885 | -72.63202 | 38974 ft | 482 kts | 144° |
| 2026-04-19 06:05 | -18.21139 | -72.58818 | 38970 ft | 482 kts | 144° |
| 2026-04-19 06:06 | -18.26388 | -72.54437 | 38970 ft | 482 kts | 144° |
| 2026-04-19 06:06 | -18.31638 | -72.50051 | 38982 ft | 482 kts | 144° |
| 2026-04-19 06:07 | -18.36886 | -72.45660 | 38974 ft | 482 kts | 144° |
| 2026-04-19 06:07 | -18.42129 | -72.41254 | 38972 ft | 482 kts | 144° |
| 2026-04-19 06:08 | -18.47376 | -72.36841 | 38971 ft | 483 kts | 144° |
| 2026-04-19 06:08 | -18.52636 | -72.32440 | 38969 ft | 483 kts | 144° |
| 2026-04-19 06:09 | -18.57928 | -72.28007 | 38970 ft | 483 kts | 144° |
| 2026-04-19 06:09 | -18.63186 | -72.23590 | 38977 ft | 483 kts | 144° |
| 2026-04-19 06:10 | -18.68443 | -72.19166 | 38966 ft | 484 kts | 144° |
| 2026-04-19 06:10 | -18.73704 | -72.14741 | 38974 ft | 484 kts | 145° |
| 2026-04-19 06:11 | -18.78972 | -72.10313 | 38978 ft | 484 kts | 145° |
| 2026-04-19 06:11 | -18.84236 | -72.05881 | 38980 ft | 484 kts | 144° |
| 2026-04-19 06:12 | -18.92133 | -71.99215 | 38982 ft | 485 kts | 145° |
| 2026-04-19 06:12 | -18.97405 | -71.94761 | 38978 ft | 486 kts | 145° |
| 2026-04-19 06:13 | -19.02681 | -71.90295 | 38972 ft | 486 kts | 145° |
| 2026-04-19 06:13 | -19.07962 | -71.85837 | 38980 ft | 486 kts | 145° |
| 2026-04-19 06:14 | -19.13240 | -71.81364 | 38982 ft | 486 kts | 145° |
| 2026-04-19 06:14 | -19.18514 | -71.76901 | 38978 ft | 486 kts | 145° |
| 2026-04-19 06:15 | -19.23826 | -71.72404 | 38988 ft | 486 kts | 145° |
| 2026-04-19 06:15 | -19.29101 | -71.67922 | 38983 ft | 487 kts | 145° |
| 2026-04-19 06:16 | -19.34387 | -71.63433 | 38982 ft | 487 kts | 145° |
| 2026-04-19 06:16 | -19.39677 | -71.58939 | 38977 ft | 487 kts | 145° |
| 2026-04-19 06:17 | -19.44963 | -71.54437 | 38981 ft | 487 kts | 144° |
| 2026-04-19 06:17 | -19.50246 | -71.49931 | 38998 ft | 487 kts | 145° |
| 2026-04-19 06:18 | -19.55528 | -71.45428 | 38994 ft | 488 kts | 145° |
| 2026-04-19 06:18 | -19.60819 | -71.40921 | 38987 ft | 488 kts | 145° |
| 2026-04-19 06:19 | -19.66113 | -71.36403 | 38979 ft | 489 kts | 145° |
| 2026-04-19 06:19 | -19.71405 | -71.31868 | 38978 ft | 489 kts | 145° |
| 2026-04-19 06:20 | -19.76698 | -71.27339 | 38982 ft | 489 kts | 145° |
| 2026-04-19 06:20 | -19.81998 | -71.22810 | 38991 ft | 489 kts | 146° |
| 2026-04-19 06:21 | -19.87335 | -71.18239 | 38984 ft | 490 kts | 146° |
| 2026-04-19 06:21 | -19.92647 | -71.13686 | 38979 ft | 491 kts | 146° |
| 2026-04-19 06:22 | -19.97961 | -71.09128 | 38978 ft | 491 kts | 145° |
| 2026-04-19 06:22 | -20.03269 | -71.04561 | 38978 ft | 491 kts | 145° |
| 2026-04-19 06:23 | -20.08577 | -70.99998 | 38995 ft | 491 kts | 146° |
| 2026-04-19 06:23 | -20.13893 | -70.95432 | 38985 ft | 491 kts | 146° |
| 2026-04-19 06:24 | -20.19203 | -70.90848 | 38982 ft | 491 kts | 146° |
| 2026-04-19 06:24 | -20.23655 | -70.87003 | 38973 ft | 492 kts | 146° |
| 2026-04-19 06:25 | -20.28963 | -70.82420 | 38976 ft | 492 kts | 146° |
| 2026-04-19 06:25 | -20.34281 | -70.77829 | 38983 ft | 492 kts | 146° |
| 2026-04-19 06:26 | -20.39594 | -70.73236 | 39003 ft | 492 kts | 146° |
| 2026-04-19 06:26 | -20.44910 | -70.68634 | 38996 ft | 493 kts | 146° |
| 2026-04-19 06:27 | -20.50264 | -70.63993 | 38994 ft | 493 kts | 146° |
| 2026-04-19 06:27 | -20.55584 | -70.59373 | 38996 ft | 493 kts | 146° |
| 2026-04-19 06:28 | -20.60906 | -70.54756 | 38996 ft | 493 kts | 146° |
| 2026-04-19 06:28 | -20.66236 | -70.50131 | 38998 ft | 493 kts | 146° |
| 2026-04-19 06:29 | -20.71554 | -70.45506 | 39008 ft | 493 kts | 146° |
| 2026-04-19 06:29 | -20.76871 | -70.40880 | 39004 ft | 493 kts | 146° |
| 2026-04-19 06:30 | -20.82215 | -70.36214 | 39003 ft | 492 kts | 146° |
| 2026-04-19 06:30 | -20.87376 | -70.31719 | 39002 ft | 492 kts | 146° |
| 2026-04-19 06:31 | -20.92521 | -70.27232 | 39059 ft | 487 kts | 146° |
| 2026-04-19 06:31 | -20.98224 | -70.23439 | 38788 ft | 478 kts | 162° |
| 2026-04-19 06:32 | -21.01324 | -70.22264 | 38547 ft | 468 kts | 174° |
| 2026-04-19 06:32 | -21.04495 | -70.21779 | 38261 ft | 455 kts | 186° |
| 2026-04-19 06:32 | -21.07648 | -70.21761 | 37695 ft | 453 kts | 188° |
| 2026-04-19 06:32 | -21.10799 | -70.21789 | 37102 ft | 454 kts | 188° |
| 2026-04-19 06:33 | -21.13969 | -70.21832 | 36496 ft | 456 kts | 188° |
| 2026-04-19 06:33 | -21.17127 | -70.21869 | 36133 ft | 451 kts | 188° |
| 2026-04-19 06:33 | -21.20259 | -70.21889 | 35733 ft | 448 kts | 188° |
| 2026-04-19 06:33 | -21.23368 | -70.21897 | 35323 ft | 446 kts | 187° |
| 2026-04-19 06:34 | -21.26461 | -70.21901 | 34918 ft | 443 kts | 188° |
| 2026-04-19 06:34 | -21.29543 | -70.21909 | 34494 ft | 441 kts | 188° |
| 2026-04-19 06:34 | -21.32602 | -70.21918 | 34067 ft | 439 kts | 188° |
| 2026-04-19 06:34 | -21.35655 | -70.21928 | 33609 ft | 437 kts | 188° |
| 2026-04-19 06:35 | -21.38679 | -70.21936 | 33185 ft | 434 kts | 187° |
| 2026-04-19 06:35 | -21.41688 | -70.21943 | 32763 ft | 431 kts | 187° |
| 2026-04-19 06:35 | -21.44679 | -70.21951 | 32346 ft | 428 kts | 187° |
| 2026-04-19 06:35 | -21.47687 | -70.21963 | 31922 ft | 426 kts | 187° |
| 2026-04-19 06:36 | -21.50645 | -70.21977 | 31520 ft | 424 kts | 187° |
| 2026-04-19 06:36 | -21.53590 | -70.21992 | 31122 ft | 422 kts | 187° |
| 2026-04-19 06:36 | -21.56514 | -70.22006 | 30740 ft | 420 kts | 187° |
| 2026-04-19 06:36 | -21.59440 | -70.22019 | 30334 ft | 419 kts | 187° |
| 2026-04-19 06:37 | -21.62347 | -70.22031 | 29932 ft | 418 kts | 187° |
| 2026-04-19 06:37 | -21.65249 | -70.22041 | 29530 ft | 415 kts | 187° |
| 2026-04-19 06:37 | -21.68122 | -70.22046 | 29170 ft | 412 kts | 187° |
| 2026-04-19 06:37 | -21.70982 | -70.22053 | 28803 ft | 409 kts | 186° |
| 2026-04-19 06:38 | -21.73813 | -70.22062 | 28453 ft | 406 kts | 186° |
| 2026-04-19 06:38 | -21.76622 | -70.22072 | 28098 ft | 402 kts | 186° |
| 2026-04-19 06:38 | -21.79410 | -70.22084 | 27743 ft | 399 kts | 186° |
| 2026-04-19 06:38 | -21.82171 | -70.22092 | 27392 ft | 395 kts | 186° |
| 2026-04-19 06:39 | -21.84915 | -70.22100 | 27029 ft | 392 kts | 186° |
| 2026-04-19 06:39 | -21.87632 | -70.22106 | 26681 ft | 389 kts | 186° |
| 2026-04-19 06:39 | -21.90310 | -70.22262 | 26283 ft | 381 kts | 194° |
| 2026-04-19 06:39 | -21.92956 | -70.22681 | 25911 ft | 378 kts | 194° |
| 2026-04-19 06:40 | -21.95552 | -70.23090 | 25532 ft | 376 kts | 194° |
| 2026-04-19 06:40 | -21.98128 | -70.23490 | 25142 ft | 374 kts | 193° |
| 2026-04-19 06:40 | -22.00699 | -70.23890 | 24757 ft | 372 kts | 193° |
| 2026-04-19 06:40 | -22.03257 | -70.24292 | 24366 ft | 371 kts | 193° |
| 2026-04-19 06:41 | -22.05807 | -70.24694 | 23970 ft | 370 kts | 193° |
| 2026-04-19 06:41 | -22.08347 | -70.25095 | 23572 ft | 369 kts | 193° |
| 2026-04-19 06:41 | -22.10882 | -70.25499 | 23125 ft | 367 kts | 193° |
| 2026-04-19 06:41 | -22.13388 | -70.25898 | 22733 ft | 364 kts | 192° |
| 2026-04-19 06:42 | -22.15887 | -70.26289 | 22341 ft | 361 kts | 192° |
| 2026-04-19 06:42 | -22.18360 | -70.26674 | 21955 ft | 358 kts | 192° |
| 2026-04-19 06:42 | -22.20818 | -70.27058 | 21565 ft | 355 kts | 192° |
| 2026-04-19 06:42 | -22.23259 | -70.27441 | 21182 ft | 353 kts | 192° |
| 2026-04-19 06:43 | -22.25690 | -70.27823 | 20793 ft | 351 kts | 192° |
| 2026-04-19 06:43 | -22.28126 | -70.28205 | 20403 ft | 349 kts | 192° |
| 2026-04-19 06:43 | -22.30516 | -70.28580 | 20022 ft | 348 kts | 192° |
| 2026-04-19 06:43 | -22.32909 | -70.28959 | 19648 ft | 346 kts | 192° |
| 2026-04-19 06:44 | -22.35290 | -70.29337 | 19261 ft | 345 kts | 192° |
| 2026-04-19 06:44 | -22.37655 | -70.29715 | 18880 ft | 343 kts | 192° |
| 2026-04-19 06:44 | -22.40014 | -70.30090 | 18505 ft | 342 kts | 192° |
| 2026-04-19 06:44 | -22.42366 | -70.30463 | 18098 ft | 341 kts | 192° |
| 2026-04-19 06:45 | -22.44705 | -70.30830 | 17707 ft | 339 kts | 191° |
| 2026-04-19 06:45 | -22.47031 | -70.31197 | 17334 ft | 336 kts | 191° |
| 2026-04-19 06:45 | -22.49332 | -70.31563 | 16959 ft | 333 kts | 191° |
| 2026-04-19 06:45 | -22.51638 | -70.31929 | 16598 ft | 330 kts | 191° |
| 2026-04-19 06:46 | -22.53909 | -70.32289 | 16231 ft | 328 kts | 191° |
| 2026-04-19 06:46 | -22.56155 | -70.32646 | 15875 ft | 325 kts | 191° |
| 2026-04-19 06:46 | -22.58385 | -70.32999 | 15509 ft | 323 kts | 191° |
| 2026-04-19 06:46 | -22.60603 | -70.33351 | 15152 ft | 321 kts | 191° |
| 2026-04-19 06:47 | -22.62833 | -70.33703 | 14788 ft | 319 kts | 191° |
| 2026-04-19 06:47 | -22.65022 | -70.34046 | 14439 ft | 316 kts | 191° |
| 2026-04-19 06:47 | -22.67190 | -70.34389 | 14089 ft | 315 kts | 191° |
| 2026-04-19 06:47 | -22.69349 | -70.34733 | 13729 ft | 313 kts | 191° |
| 2026-04-19 06:48 | -22.71496 | -70.35075 | 13357 ft | 310 kts | 190° |
| 2026-04-19 06:48 | -22.73645 | -70.35416 | 13002 ft | 307 kts | 190° |
| 2026-04-19 06:48 | -22.75755 | -70.35749 | 12654 ft | 305 kts | 190° |
| 2026-04-19 06:48 | -22.77846 | -70.36079 | 12324 ft | 302 kts | 190° |
| 2026-04-19 06:49 | -22.79890 | -70.36401 | 12209 ft | 292 kts | 190° |
| 2026-04-19 06:49 | -22.81873 | -70.36715 | 12022 ft | 285 kts | 190° |
| 2026-04-19 06:49 | -22.83831 | -70.37027 | 11749 ft | 283 kts | 190° |
| 2026-04-19 06:49 | -22.85791 | -70.37340 | 11396 ft | 285 kts | 190° |
| 2026-04-19 06:50 | -22.87759 | -70.37653 | 11038 ft | 287 kts | 190° |
| 2026-04-19 06:50 | -22.89069 | -70.37857 | 10787 ft | 288 kts | 189° |
| 2026-04-19 06:50 | -22.91065 | -70.38122 | 10413 ft | 290 kts | 187° |
| 2026-04-19 06:50 | -22.93074 | -70.38356 | 10050 ft | 291 kts | 187° |
| 2026-04-19 06:51 | -22.95092 | -70.38580 | 9662 ft | 292 kts | 186° |
| 2026-04-19 06:51 | -22.97119 | -70.38802 | 9259 ft | 293 kts | 186° |
| 2026-04-19 06:51 | -22.99149 | -70.39029 | 8859 ft | 294 kts | 186° |
| 2026-04-19 06:51 | -23.01182 | -70.39259 | 8467 ft | 294 kts | 186° |
| 2026-04-19 06:52 | -23.03214 | -70.39492 | 8074 ft | 293 kts | 186° |
| 2026-04-19 06:52 | -23.05230 | -70.39724 | 7743 ft | 288 kts | 186° |
| 2026-04-19 06:52 | -23.07179 | -70.39952 | 7618 ft | 275 kts | 186° |
| 2026-04-19 06:52 | -23.09067 | -70.40185 | 7387 ft | 268 kts | 186° |
| 2026-04-19 06:53 | -23.10916 | -70.40418 | 7103 ft | 267 kts | 186° |
| 2026-04-19 06:53 | -23.12730 | -70.40640 | 6896 ft | 263 kts | 186° |
| 2026-04-19 06:53 | -23.14568 | -70.40862 | 6560 ft | 264 kts | 186° |
| 2026-04-19 06:53 | -23.16404 | -70.41084 | 6120 ft | 266 kts | 186° |
| 2026-04-19 06:54 | -23.18229 | -70.41306 | 5671 ft | 262 kts | 186° |
| 2026-04-19 06:54 | -23.20023 | -70.41524 | 5240 ft | 257 kts | 186° |
| 2026-04-19 06:54 | -23.21801 | -70.41742 | 4802 ft | 250 kts | 186° |
| 2026-04-19 06:54 | -23.23502 | -70.41949 | 4447 ft | 239 kts | 186° |
| 2026-04-19 06:55 | -23.25106 | -70.42146 | 4207 ft | 225 kts | 186° |
| 2026-04-19 06:55 | -23.26627 | -70.42334 | 3969 ft | 215 kts | 186° |
| 2026-04-19 06:55 | -23.28082 | -70.42511 | 3699 ft | 208 kts | 186° |
| 2026-04-19 06:55 | -23.29492 | -70.42684 | 3434 ft | 199 kts | 186° |
| 2026-04-19 06:56 | -23.30820 | -70.42846 | 3188 ft | 185 kts | 186° |
| 2026-04-19 06:56 | -23.32070 | -70.42999 | 2957 ft | 172 kts | 186° |
| 2026-04-19 06:56 | -23.33211 | -70.43138 | 2752 ft | 159 kts | 186° |
| 2026-04-19 06:56 | -23.34276 | -70.43268 | 2520 ft | 151 kts | 186° |
| 2026-04-19 06:57 | -23.35289 | -70.43392 | 2276 ft | 141 kts | 186° |
| 2026-04-19 06:57 | -23.36240 | -70.43507 | 2031 ft | 135 kts | 186° |
| 2026-04-19 06:57 | -23.37160 | -70.43613 | 1781 ft | 132 kts | 185° |
| 2026-04-19 06:57 | -23.38071 | -70.43718 | 1576 ft | 131 kts | 185° |
| 2026-04-19 06:58 | -23.38981 | -70.43804 | 1398 ft | 132 kts | 185° |
| 2026-04-19 06:58 | -23.39888 | -70.43936 | 1202 ft | 131 kts | 188° |
| 2026-04-19 06:58 | -23.40790 | -70.44062 | 1042 ft | 131 kts | 187° |
| 2026-04-19 06:58 | -23.41694 | -70.44162 | 837 ft | 130 kts | 185° |
| 2026-04-19 06:59 | -23.42589 | -70.44277 | 668 ft | 129 kts | 187° |
| 2026-04-19 06:59 | -23.43491 | -70.44387 | 436 ft | 128 kts | 186° |
| 2026-04-19 06:59 | -23.44262 | -70.44483 | 391 ft | 92 kts | 187° |
| 2026-04-19 06:59 | -23.44734 | -70.44543 | 372 ft | 43 kts | 186° |
| 2026-04-19 07:00 | -23.44926 | -70.44565 | 366 ft | 27 kts | 186° |
| 2026-04-19 07:00 | -23.45117 | -70.44587 | 359 ft | 21 kts | 186° |
| 2026-04-19 07:00 | -23.45216 | -70.44545 | 358 ft | 17 kts | 107° |
| 2026-04-19 07:00 | -23.45226 | -70.44434 | 356 ft | 13 kts | 81° |
| 2026-04-19 07:01 | -23.45151 | -70.44399 | 358 ft | 13 kts | 6° |
| 2026-04-19 07:01 | -23.45065 | -70.44388 | 361 ft | 12 kts | 7° |
| 2026-04-19 07:01 | -23.45000 | -70.44378 | 363 ft | 6 kts | 10° |
| 2026-04-19 07:01 | -23.44983 | -70.44343 | 364 ft | 6 kts | 93° |
| 2026-04-19 07:02 | -23.44986 | -70.44282 | 363 ft | 9 kts | 70° |
| 2026-04-19 07:02 | -23.44930 | -70.44264 | 367 ft | 9 kts | 2° |
| 2026-04-19 07:02 | -23.44877 | -70.44252 | 370 ft | 7 kts | 34° |
| 2026-04-19 07:02 | -23.44869 | -70.44202 | 368 ft | 8 kts | 97° |
| 2026-04-19 07:03 | -23.44873 | -70.44168 | 368 ft | 3 kts | 97° |
| 2026-04-19 07:03 | -23.44874 | -70.44163 | 368 ft | 0 kts | 96° |